Accueil
METAR-TAF:

METAR-TAF

Aéroports :

Aéroport Sandro-Pertini de Turin Caselle

Turin, Italie

latitude: 45-13N, longitude: 007-39E, altitude: 301 m

Observation

Le bulletin a été fait il y a 22 minutes, à 03:50 UTC
Vent 1 kt de direction variable
Température 12°C
Humidité 67%
Pression 1023 hPa
Visibilité 10 km ou plus
Nuages fragmentés à une hauteur de 4500 ft

METAR: LIMF 220350Z VRB01KT 9999 BKN045 12/06 Q1023

Heure: 06:12 (04:12 UTC)

Prévision

Le bulletin a été fait il y a 5 heures et 12 minutes, à 23:00 UTC
Prévision valable du 22 à 00 UTC au 22 à 24 UTC
Vent 7 kt de nord-est
Visibilité: 8000 m
Nuages fragmentés à une hauteur de 5000 ft

TAF: LIMF 212300Z 2200/2224 04007KT 8000 BKN050

Observations et prévisions météorologiques de plus de 4000 aéroports (messages METAR et TAF).

Les stations disponibles sont représentées par des disques jaunes et rouges sur la carte.

Passer la souris dessus pour voir le nom de la station.

Cliquer dessus pour voir les observations et prévisions météorologiques.

Pour changer de carte: cliquez sur les boutons verts avec une croix noire pour zoomer, sur le bouton vert avec un tiret pour effectuer un zoom arrière, ou sur les flèches vertes pour les cartes adjacentes.


METAR-TAF: